createdAt,value
2022-08-16T00:02:20.784Z,78.19
2022-08-16T00:06:23.305Z,78.66
2022-08-16T00:10:28.628Z,79.18
2022-08-16T00:14:33.450Z,79.46
2022-08-16T00:18:35.746Z,79.75
2022-08-16T00:22:42.786Z,79.73
2022-08-16T00:26:45.481Z,80.07
2022-08-16T00:30:47.950Z,80.21
2022-08-16T00:34:52.956Z,80.57
2022-08-16T00:38:56.918Z,81.03
2022-08-16T00:43:00.366Z,81.55
2022-08-16T00:47:08.583Z,81.76
2022-08-16T00:51:12.319Z,82.09
2022-08-16T00:55:22.091Z,82.16
2022-08-16T00:59:27.390Z,82.96
2022-08-16T01:03:31.836Z,83.29
2022-08-16T01:07:50.445Z,83.69
2022-08-16T01:11:55.322Z,84.16
2022-08-16T01:16:03.025Z,84.76
2022-08-16T01:20:23.798Z,85.42
2022-08-16T01:24:55.454Z,86.29
2022-08-16T01:29:03.229Z,86.59
2022-08-16T01:33:15.068Z,87.02
2022-08-16T01:37:19.784Z,86.57
2022-08-16T01:41:29.600Z,85.67
2022-08-16T01:45:40.356Z,84.58
2022-08-16T01:50:43.608Z,84.15
2022-08-16T01:54:07.457Z,84.57
2022-08-16T01:58:16.523Z,86.80
2022-08-16T02:02:26.987Z,87.61
2022-08-16T02:06:34.610Z,88.11
2022-08-16T02:10:40.749Z,87.00
2022-08-16T02:14:43.734Z,87.86
2022-08-16T02:18:47.485Z,89.32
2022-08-16T02:22:50.931Z,88.37
2022-08-16T02:26:53.686Z,88.10
2022-08-16T02:31:02.286Z,89.17
2022-08-16T02:35:04.894Z,89.69
2022-08-16T02:39:14.877Z,88.16
2022-08-16T02:43:17.482Z,88.60
2022-08-16T02:47:25.414Z,90.67
2022-08-16T02:51:27.863Z,92.22
2022-08-16T02:55:41.242Z,92.20
2022-08-16T02:59:44.986Z,93.26
2022-08-16T03:04:39.449Z,93.23
2022-08-16T03:08:50.696Z,92.37
2022-08-16T03:12:36.704Z,92.43
2022-08-16T03:16:58.873Z,93.88
2022-08-16T03:21:02.872Z,93.16
2022-08-16T03:25:11.269Z,94.71
2022-08-16T03:29:15.675Z,94.69
2022-08-16T03:33:18.163Z,94.40
2022-08-16T03:37:29.233Z,94.97
2022-08-16T03:41:49.688Z,95.93
2022-08-16T03:45:55.251Z,96.73
2022-08-16T03:50:01.618Z,96.95
2022-08-16T03:54:12.174Z,98.06
2022-08-16T03:58:15.734Z,99.04
2022-08-16T04:02:22.182Z,97.94
2022-08-16T04:06:26.313Z,97.15
2022-08-16T04:10:36.880Z,97.53
2022-08-16T04:14:46.615Z,97.09
2022-08-16T04:18:50.709Z,98.64
2022-08-16T04:22:53.367Z,97.25
2022-08-16T04:26:56.263Z,97.55
2022-08-16T04:31:00.460Z,99.18
2022-08-16T04:35:09.340Z,99.47
2022-08-16T04:39:16.712Z,97.54
2022-08-16T04:43:19.413Z,98.75
2022-08-16T04:47:24.139Z,99.22
2022-08-16T04:51:28.075Z,98.27
2022-08-16T04:55:38.601Z,99.25
2022-08-16T04:59:42.064Z,98.08
2022-08-16T05:04:00.536Z,88.11
2022-08-16T05:08:28.855Z,83.27
2022-08-16T05:12:48.054Z,82.98
2022-08-16T05:16:52.139Z,82.40
2022-08-16T05:21:09.428Z,79.70
2022-08-16T05:25:16.934Z,80.22
2022-08-16T05:29:57.459Z,80.62
2022-08-16T05:33:53.480Z,82.95
2022-08-16T05:37:59.244Z,82.74
2022-08-16T05:42:02.097Z,72.69
2022-08-16T05:46:05.812Z,57.30
2022-08-16T05:50:33.937Z,49.91
2022-08-16T05:54:36.729Z,45.65
2022-08-16T05:58:38.953Z,42.46
2022-08-16T06:02:42.656Z,40.33
2022-08-16T06:07:24.690Z,38.28
2022-08-16T06:11:36.892Z,36.17
2022-08-16T06:15:41.464Z,35.08
2022-08-16T06:19:44.742Z,34.09
2022-08-16T06:23:54.061Z,33.35
2022-08-16T06:27:57.295Z,32.29
2022-08-16T06:32:02.793Z,31.86
2022-08-16T06:36:09.103Z,31.66
2022-08-16T06:40:15.708Z,31.02
2022-08-16T06:44:24.651Z,30.94
2022-08-16T06:48:34.017Z,30.09
2022-08-16T06:53:00.639Z,30.00
2022-08-16T06:57:01.264Z,29.84
2022-08-16T07:01:04.800Z,29.16
2022-08-16T07:05:15.835Z,29.04
2022-08-16T07:09:32.739Z,32.74
2022-08-16T07:14:00.624Z,37.32
2022-08-16T07:18:01.608Z,41.44
2022-08-16T07:22:07.628Z,44.23
2022-08-16T07:26:29.764Z,47.48
2022-08-16T07:30:45.177Z,49.14
2022-08-16T07:34:57.041Z,50.32
2022-08-16T07:39:01.419Z,50.66
2022-08-16T07:43:08.759Z,51.61
2022-08-16T07:47:11.886Z,52.21
2022-08-16T07:51:15.081Z,52.32
2022-08-16T07:55:18.611Z,53.50
2022-08-16T07:59:20.873Z,54.49
2022-08-16T08:03:23.647Z,55.00
2022-08-16T08:07:45.343Z,55.33
2022-08-16T08:11:59.557Z,55.00
2022-08-16T08:16:05.952Z,55.60
2022-08-16T08:20:11.972Z,54.81
2022-08-16T08:24:15.189Z,55.50
2022-08-16T08:32:58.624Z,55.01
2022-08-16T08:36:44.991Z,56.00
2022-08-16T08:40:57.582Z,54.70
2022-08-16T08:45:03.960Z,54.84
2022-08-16T08:49:08.816Z,54.34
2022-08-16T08:53:16.238Z,54.49
2022-08-16T08:57:20.307Z,53.90
2022-08-16T09:01:42.965Z,54.11
2022-08-16T09:06:00.783Z,52.96
2022-08-16T09:10:20.352Z,53.14
2022-08-16T09:14:24.926Z,53.41
2022-08-16T09:18:35.603Z,54.09
2022-08-16T09:22:41.636Z,53.93
2022-08-16T09:26:46.661Z,53.01
2022-08-16T09:30:50.064Z,52.36
2022-08-16T09:34:53.104Z,51.99
2022-08-16T09:39:02.105Z,52.06
2022-08-16T09:43:04.814Z,51.43
2022-08-16T09:47:10.425Z,51.19
2022-08-16T09:51:13.949Z,50.21
2022-08-16T09:55:16.122Z,50.67
2022-08-16T09:59:19.019Z,49.79
2022-08-16T10:03:22.226Z,48.86
2022-08-16T10:07:44.388Z,47.50
2022-08-16T10:12:11.416Z,47.79
2022-08-16T10:16:22.339Z,47.06
2022-08-16T10:20:25.643Z,46.44
2022-08-16T10:24:29.013Z,46.20
2022-08-16T10:28:32.558Z,46.23
2022-08-16T10:32:41.839Z,45.12
2022-08-16T10:36:43.944Z,44.19
2022-08-16T10:40:46.591Z,44.00
2022-08-16T10:44:53.980Z,43.17
2022-08-16T10:48:57.333Z,42.37
2022-08-16T10:53:00.587Z,42.68
2022-08-16T10:57:12.092Z,43.02
2022-08-16T11:01:43.085Z,42.25
2022-08-16T11:14:24.516Z,42.64
2022-08-16T11:19:02.792Z,42.21
2022-08-16T11:22:53.731Z,41.74
2022-08-16T11:31:18.114Z,41.85
2022-08-16T11:39:45.751Z,41.75
2022-08-16T11:43:48.454Z,41.92
2022-08-16T11:47:51.633Z,41.86
2022-08-16T11:51:54.506Z,42.00
2022-08-16T11:55:57.272Z,41.00
2022-08-16T12:00:02.681Z,40.70
2022-08-16T12:04:13.638Z,41.16
2022-08-16T12:08:16.213Z,40.58
2022-08-16T12:12:23.466Z,40.36
2022-08-16T12:16:31.188Z,40.19
2022-08-16T12:20:40.376Z,40.08
2022-08-16T12:24:42.714Z,39.48
2022-08-16T12:28:56.076Z,40.05
2022-08-16T12:33:03.068Z,39.49
2022-08-16T12:37:10.379Z,38.21
2022-08-16T12:41:14.590Z,39.28
2022-08-16T12:45:30.751Z,39.18
2022-08-16T12:49:32.883Z,38.81
2022-08-16T12:53:45.037Z,39.01
2022-08-16T12:57:58.135Z,37.84
2022-08-16T13:02:02.546Z,38.01
2022-08-16T13:06:08.702Z,37.88
2022-08-16T13:10:21.376Z,38.71
2022-08-16T13:14:41.286Z,37.90
2022-08-16T13:18:43.464Z,38.24
2022-08-16T13:23:09.880Z,37.81
2022-08-16T13:27:13.468Z,38.29
2022-08-16T13:31:16.916Z,37.27
2022-08-16T13:35:20.078Z,37.47
2022-08-16T13:39:22.223Z,37.35
2022-08-16T13:43:27.395Z,37.39
2022-08-16T13:47:30.313Z,37.48
2022-08-16T13:51:32.645Z,37.44
2022-08-16T13:55:34.758Z,37.32
2022-08-16T13:59:37.141Z,37.12
2022-08-16T14:03:40.970Z,37.54
2022-08-16T14:07:43.071Z,37.18
2022-08-16T14:11:49.466Z,36.68
2022-08-16T14:15:55.291Z,37.06
2022-08-16T14:19:59.987Z,36.85
2022-08-16T14:24:03.289Z,36.29
2022-08-16T14:28:15.028Z,36.52
2022-08-16T14:32:32.470Z,36.22
2022-08-16T14:36:37.006Z,36.64
2022-08-16T14:40:43.484Z,36.37
2022-08-16T14:44:49.491Z,36.87
2022-08-16T14:48:51.996Z,36.25
2022-08-16T14:53:00.991Z,36.51
2022-08-16T14:57:03.653Z,36.43
2022-08-16T15:01:09.749Z,36.66
2022-08-16T15:05:12.813Z,35.73
2022-08-16T15:09:16.943Z,36.00
2022-08-16T15:13:19.121Z,36.08
2022-08-16T15:17:23.246Z,35.62
2022-08-16T15:21:27.931Z,35.96
2022-08-16T15:25:41.876Z,35.34
2022-08-16T15:29:44.973Z,36.14
2022-08-16T15:33:56.417Z,35.36
2022-08-16T15:38:01.389Z,35.29
2022-08-16T15:42:27.473Z,35.81
2022-08-16T15:46:34.973Z,35.87
2022-08-16T15:50:57.662Z,36.06
2022-08-16T15:55:13.311Z,35.44
2022-08-16T15:59:27.349Z,34.86
2022-08-16T16:03:29.458Z,34.88
2022-08-16T16:07:38.640Z,34.84
2022-08-16T16:11:45.115Z,35.70
2022-08-16T16:15:50.095Z,35.62
2022-08-16T16:19:53.829Z,35.35
2022-08-16T16:23:57.752Z,34.98
2022-08-16T16:28:02.569Z,35.46
2022-08-16T16:32:07.699Z,35.77
2022-08-16T16:36:14.651Z,35.63
2022-08-16T16:40:23.880Z,35.98
2022-08-16T16:44:37.325Z,35.90
2022-08-16T16:48:39.886Z,36.33
2022-08-16T16:52:45.119Z,35.57
2022-08-16T16:56:50.012Z,35.98
2022-08-16T17:00:58.388Z,36.73
2022-08-16T17:05:03.387Z,35.62
2022-08-16T17:09:10.418Z,35.92
2022-08-16T17:13:13.278Z,36.10
2022-08-16T17:17:17.305Z,36.46
2022-08-16T17:21:20.673Z,36.94
2022-08-16T17:25:24.760Z,36.58
2022-08-16T17:29:30.955Z,36.53
2022-08-16T17:33:37.018Z,36.85
2022-08-16T17:37:56.087Z,36.99
2022-08-16T17:42:03.797Z,37.59
2022-08-16T17:46:07.318Z,37.29
2022-08-16T17:50:29.666Z,37.56
2022-08-16T17:54:32.763Z,37.70
2022-08-16T17:58:35.025Z,38.32
2022-08-16T18:02:44.065Z,38.14
2022-08-16T18:06:49.021Z,38.43
2022-08-16T18:10:51.684Z,38.40
2022-08-16T18:14:56.992Z,38.71
2022-08-16T18:19:02.411Z,39.42
2022-08-16T18:23:15.069Z,39.87
2022-08-16T18:27:26.118Z,40.14
2022-08-16T18:31:29.293Z,40.64
2022-08-16T18:35:31.599Z,40.79
2022-08-16T18:39:35.270Z,41.08
2022-08-16T18:44:23.200Z,41.36
2022-08-16T18:47:59.658Z,41.53
2022-08-16T18:52:03.103Z,42.71
2022-08-16T18:56:05.340Z,42.63
2022-08-16T19:00:11.361Z,43.15
2022-08-16T19:04:56.349Z,44.08
2022-08-16T19:08:36.082Z,44.55
2022-08-16T19:12:42.163Z,44.85
2022-08-16T19:16:44.668Z,44.91
2022-08-16T19:20:47.332Z,45.62
2022-08-16T19:24:49.446Z,45.72
2022-08-16T19:28:58.745Z,45.87
2022-08-16T19:33:01.953Z,45.93
2022-08-16T19:37:03.980Z,46.02
2022-08-16T19:41:06.207Z,46.53
2022-08-16T19:45:08.645Z,46.73
2022-08-16T19:49:15.863Z,47.02
2022-08-16T19:53:19.555Z,47.95
2022-08-16T19:57:22.639Z,47.82
2022-08-16T20:01:25.311Z,48.30
2022-08-16T20:05:31.257Z,48.65
2022-08-16T20:09:33.863Z,48.58
2022-08-16T20:13:38.542Z,49.16
2022-08-16T20:17:40.629Z,49.22
2022-08-16T20:21:42.747Z,49.92
2022-08-16T20:25:49.937Z,50.24
2022-08-16T20:29:52.349Z,51.03
2022-08-16T20:33:54.509Z,51.56
2022-08-16T20:37:56.728Z,51.95
2022-08-16T20:41:58.992Z,52.04
2022-08-16T20:46:01.024Z,52.30
2022-08-16T20:50:04.566Z,52.86
2022-08-16T20:54:06.610Z,52.87
2022-08-16T20:58:08.711Z,52.80
2022-08-16T21:02:13.458Z,53.26
2022-08-16T21:06:15.546Z,53.73
2022-08-16T21:10:21.211Z,54.27
2022-08-16T21:14:23.955Z,54.88
2022-08-16T21:18:26.685Z,55.42
2022-08-16T21:22:28.776Z,55.89
2022-08-16T21:26:31.319Z,56.70
2022-08-16T21:30:33.554Z,56.81
2022-08-16T21:34:35.703Z,56.79
2022-08-16T21:38:39.431Z,57.10
2022-08-16T21:42:42.946Z,57.71
2022-08-16T21:46:44.984Z,57.54
2022-08-16T21:50:47.037Z,57.33
2022-08-16T21:54:54.109Z,57.54
2022-08-16T21:58:58.575Z,57.27
2022-08-16T22:03:03.462Z,58.64
2022-08-16T22:07:06.345Z,58.99
2022-08-16T22:11:09.402Z,59.42
2022-08-16T22:15:13.176Z,59.93
2022-08-16T22:19:15.214Z,60.25
2022-08-16T22:23:21.876Z,59.90
2022-08-16T22:27:23.924Z,60.64
2022-08-16T22:31:26.101Z,60.85
2022-08-16T22:35:28.150Z,61.53
2022-08-16T22:39:30.235Z,62.28
2022-08-16T22:43:33.109Z,63.12
2022-08-16T22:47:35.587Z,62.99
2022-08-16T22:51:40.240Z,62.50
2022-08-16T22:55:42.907Z,62.36
2022-08-16T22:59:45.076Z,62.54
2022-08-16T23:03:47.114Z,62.87
2022-08-16T23:07:49.259Z,63.15
2022-08-16T23:11:51.551Z,63.37
2022-08-16T23:15:56.262Z,63.41
2022-08-16T23:19:58.421Z,64.34
2022-08-16T23:24:00.990Z,63.86
2022-08-16T23:28:04.851Z,64.60
2022-08-16T23:32:11.727Z,64.53
2022-08-16T23:36:13.831Z,64.66
2022-08-16T23:40:16.191Z,64.77
2022-08-16T23:44:56.700Z,64.93
2022-08-16T23:49:45.145Z,65.02
2022-08-16T23:53:09.944Z,66.48
2022-08-16T23:57:12.019Z,66.25
